Time;durP1;ratioP1;P1;durP2;ratioP2;P2;SDS_P1;SDS_P2;PMS_P1;PMS_P2;Temp;Humidity;BMP_temperature;BMP_pressure;BME280_temperature;BME280_humidity;BME280_pressure;Samples;Min_cycle;Max_cycle;Signal;HPM_P1;HPM_P2
2023/05/21 00:03:45;;;;;;;6.60;5.93;;;21.60;29.70;;;;;;10453005;28;20313;-72
2023/05/21 00:08:49;;;;;;;7.23;6.63;;;21.60;29.70;;;;;;10457223;28;20259;-72
2023/05/21 00:13:53;;;;;;;6.67;6.17;;;21.60;29.70;;;;;;10456682;28;20229;-72
2023/05/21 00:18:57;;;;;;;6.27;5.77;;;21.60;29.80;;;;;;10453360;28;20731;-72
2023/05/21 00:24:00;;;;;;;6.33;5.83;;;21.50;29.70;;;;;;10455596;28;20228;-72
2023/05/21 00:29:04;;;;;;;6.70;6.10;;;21.50;29.70;;;;;;10455139;28;20228;-72
2023/05/21 00:34:08;;;;;;;7.10;6.40;;;21.50;29.80;;;;;;10460833;28;20578;-72
2023/05/21 00:39:11;;;;;;;7.37;6.67;;;21.50;29.70;;;;;;10456182;28;20228;-72
2023/05/21 00:44:18;;;;;;;7.10;6.50;;;21.50;29.70;;;;;;10447455;28;20247;-72
2023/05/21 00:49:23;;;;;;;6.40;5.90;;;21.50;29.80;;;;;;10441272;28;20708;-72
2023/05/21 00:54:26;;;;;;;6.63;6.13;;;21.40;29.70;;;;;;10448144;28;20228;-72
2023/05/21 00:59:32;;;;;;;6.20;5.70;;;21.40;29.70;;;;;;10445213;28;20619;-72
2023/05/21 01:04:36;;;;;;;6.10;5.60;;;21.40;29.70;;;;;;10449779;28;20229;-72
2023/05/21 01:09:40;;;;;;;6.87;6.27;;;21.30;29.60;;;;;;10451256;28;20229;-72
2023/05/21 01:14:49;;;;;;;6.87;6.03;;;21.30;29.60;;;;;;10450230;28;20696;-72
2023/05/21 01:19:53;;;;;;;5.43;5.03;;;21.30;29.70;;;;;;10452005;28;20662;-72
2023/05/21 01:25:01;;;;;;;6.20;5.70;;;21.20;29.60;;;;;;10439830;28;20591;-72
2023/05/21 01:30:07;;;;;;;5.90;5.40;;;21.20;29.60;;;;;;10442288;28;20316;-72
2023/05/21 01:35:13;;;;;;;6.07;5.57;;;21.20;29.60;;;;;;10446352;28;20330;-72
2023/05/21 01:40:24;;;;;;;6.17;5.67;;;21.20;29.40;;;;;;10442581;28;20312;-72
2023/05/21 01:45:31;;;;;;;6.37;5.77;;;21.20;29.60;;;;;;10448571;28;20534;-72
2023/05/21 01:50:35;;;;;;;5.10;4.70;;;21.20;29.50;;;;;;10444979;28;20611;-72
2023/05/21 01:55:40;;;;;;;5.40;5.00;;;21.20;29.40;;;;;;10446043;28;20615;-71
2023/05/21 02:00:44;;;;;;;5.77;5.27;;;21.10;29.50;;;;;;10448133;28;20378;-72
2023/05/21 02:05:47;;;;;;;5.13;4.83;;;21.10;29.50;;;;;;10446730;28;20225;-72
2023/05/21 02:10:51;;;;;;;6.00;4.87;;;21.00;29.40;;;;;;10445031;28;20327;-72
2023/05/21 02:15:55;;;;;;;5.10;4.70;;;21.00;29.30;;;;;;10441053;28;20235;-72
2023/05/21 02:20:58;;;;;;;5.47;5.00;;;20.90;29.40;;;;;;10443219;28;20236;-72
2023/05/21 02:26:03;;;;;;;5.53;5.03;;;20.90;29.50;;;;;;10444565;28;20231;-72
2023/05/21 02:31:06;;;;;;;5.60;5.20;;;20.90;29.70;;;;;;10448373;28;20224;-72
2023/05/21 02:36:11;;;;;;;5.50;5.10;;;20.80;29.60;;;;;;10448007;28;20228;-72
2023/05/21 02:41:16;;;;;;;5.70;5.30;;;20.70;29.50;;;;;;10451865;28;20233;-72
2023/05/21 02:46:19;;;;;;;5.63;5.23;;;20.70;29.70;;;;;;10439589;28;20319;-72
2023/05/21 02:51:23;;;;;;;4.80;4.50;;;20.60;29.70;;;;;;10445384;28;20221;-72
2023/05/21 02:56:27;;;;;;;5.13;4.73;;;20.60;29.70;;;;;;10445524;28;20327;-72
2023/05/21 03:01:30;;;;;;;4.73;4.40;;;20.50;29.90;;;;;;10445147;28;20810;-72
2023/05/21 03:06:34;;;;;;;5.67;5.17;;;20.40;29.70;;;;;;10446507;28;20237;-72
2023/05/21 03:11:38;;;;;;;5.00;4.50;;;20.30;29.70;;;;;;10449606;28;20259;-72
2023/05/21 03:16:42;;;;;;;5.40;5.00;;;20.20;29.90;;;;;;10444519;28;20243;-72
2023/05/21 03:21:47;;;;;;;5.37;4.97;;;20.10;29.70;;;;;;10444618;28;20583;-72
2023/05/21 03:26:53;;;;;;;5.43;4.93;;;20.10;29.80;;;;;;10447524;28;20727;-72
2023/05/21 03:31:56;;;;;;;5.10;4.70;;;20.00;29.90;;;;;;10452286;28;20227;-72
2023/05/21 03:37:00;;;;;;;4.73;4.40;;;19.90;30.00;;;;;;10451292;28;20254;-72
2023/05/21 03:42:04;;;;;;;5.10;4.70;;;19.80;30.00;;;;;;10443797;28;20704;-72
2023/05/21 03:47:08;;;;;;;6.10;4.47;;;19.70;30.10;;;;;;10454082;28;20240;-71
2023/05/21 03:52:11;;;;;;;5.03;4.60;;;19.70;30.10;;;;;;10448539;28;20268;-72
2023/05/21 03:57:15;;;;;;;5.37;4.87;;;19.70;30.20;;;;;;10455343;28;20235;-72
2023/05/21 04:02:19;;;;;;;4.77;4.47;;;19.70;30.40;;;;;;10452570;28;20228;-72
2023/05/21 04:07:22;;;;;;;4.77;4.30;;;19.70;30.30;;;;;;10451928;28;20244;-72
2023/05/21 04:12:27;;;;;;;5.73;4.67;;;19.70;30.40;;;;;;10451716;28;20221;-72
2023/05/21 04:17:30;;;;;;;4.60;4.00;;;19.70;30.60;;;;;;10445006;28;20316;-72
2023/05/21 04:22:34;;;;;;;5.30;4.80;;;19.80;30.40;;;;;;10446780;28;20236;-73
2023/05/21 04:27:38;;;;;;;5.33;4.93;;;19.80;30.60;;;;;;10439390;28;20237;-72
2023/05/21 04:32:44;;;;;;;5.13;4.73;;;19.70;30.90;;;;;;10438549;28;20916;-72
2023/05/21 04:37:50;;;;;;;5.97;5.00;;;19.80;30.90;;;;;;10434339;28;20336;-72
2023/05/21 04:42:55;;;;;;;5.30;4.87;;;19.70;30.90;;;;;;10438553;28;20243;-72
2023/05/21 04:47:59;;;;;;;5.10;4.70;;;19.80;31.40;;;;;;10434540;28;20237;-72
2023/05/21 04:53:03;;;;;;;6.13;5.63;;;19.80;31.20;;;;;;10433607;28;20228;-72
2023/05/21 04:58:09;;;;;;;5.57;5.17;;;19.80;32.10;;;;;;10448411;28;20703;-72
2023/05/21 05:03:13;;;;;;;6.40;5.90;;;19.80;31.80;;;;;;10440872;28;20677;-72
2023/05/21 05:08:17;;;;;;;5.70;5.30;;;19.90;31.80;;;;;;10436353;28;20678;-72
2023/05/21 05:13:22;;;;;;;6.47;5.97;;;19.80;31.80;;;;;;10447889;28;20223;-72
2023/05/21 05:18:26;;;;;;;6.67;6.17;;;19.80;32.30;;;;;;10450889;28;21059;-72
2023/05/21 05:23:29;;;;;;;7.20;6.60;;;19.90;32.20;;;;;;10444728;28;20224;-71
2023/05/21 05:28:34;;;;;;;7.90;7.20;;;19.90;32.30;;;;;;10449980;28;20258;-71
2023/05/21 05:33:37;;;;;;;7.23;6.63;;;20.00;32.70;;;;;;10452937;28;20305;-71
2023/05/21 05:38:40;;;;;;;6.90;6.40;;;20.00;32.50;;;;;;10445434;28;20237;-69
2023/05/21 05:43:45;;;;;;;7.43;6.73;;;20.10;32.50;;;;;;10452757;28;20311;-69
2023/05/21 05:48:49;;;;;;;7.57;6.97;;;20.10;33.10;;;;;;10487538;28;20318;-69
2023/05/21 05:53:52;;;;;;;8.30;7.60;;;20.10;32.80;;;;;;10489574;28;20630;-69
2023/05/21 05:58:57;;;;;;;7.80;7.10;;;20.20;33.00;;;;;;10488572;28;20237;-69
2023/05/21 06:04:00;;;;;;;7.70;7.10;;;20.20;33.30;;;;;;10448136;28;20224;-70
2023/05/21 06:09:03;;;;;;;7.83;7.17;;;20.30;33.10;;;;;;10445666;28;20571;-71
2023/05/21 06:14:08;;;;;;;7.93;7.33;;;20.30;33.20;;;;;;10439724;28;20243;-70
2023/05/21 06:19:11;;;;;;;8.67;7.87;;;20.40;33.60;;;;;;10440726;28;20226;-70
2023/05/21 06:24:14;;;;;;;7.80;7.17;;;20.50;33.30;;;;;;10446501;28;20229;-70
2023/05/21 06:29:19;;;;;;;7.63;7.10;;;20.60;33.40;;;;;;10441030;28;20235;-70
2023/05/21 06:34:22;;;;;;;8.37;7.67;;;20.80;33.60;;;;;;10440292;28;20235;-70
2023/05/21 06:39:26;;;;;;;8.23;7.50;;;20.90;33.40;;;;;;10443548;28;20319;-70
2023/05/21 06:44:30;;;;;;;8.30;7.50;;;21.00;33.20;;;;;;10446263;28;20320;-70
2023/05/21 06:49:34;;;;;;;8.30;7.60;;;21.20;33.30;;;;;;10434395;28;20237;-71
2023/05/21 06:54:37;;;;;;;7.90;7.20;;;21.30;33.10;;;;;;10439175;28;20224;-70
2023/05/21 06:59:42;;;;;;;8.50;7.80;;;21.40;33.10;;;;;;10444663;28;20331;-75
2023/05/21 07:04:45;;;;;;;8.10;7.40;;;21.60;33.20;;;;;;10443531;28;20228;-71
2023/05/21 07:09:48;;;;;;;8.17;7.57;;;21.70;32.90;;;;;;10437839;28;20224;-71
2023/05/21 07:14:53;;;;;;;7.97;7.33;;;21.80;32.80;;;;;;10444505;28;20596;-71
2023/05/21 07:19:56;;;;;;;8.30;7.60;;;21.90;32.70;;;;;;10434177;28;20229;-71
2023/05/21 07:25:00;;;;;;;8.27;7.57;;;22.00;32.70;;;;;;10441912;28;21081;-70
2023/05/21 07:30:05;;;;;;;8.47;7.77;;;22.10;32.80;;;;;;10451274;28;20763;-70
2023/05/21 07:35:09;;;;;;;8.30;7.60;;;22.20;32.70;;;;;;10445101;28;20682;-70
2023/05/21 07:40:13;;;;;;;7.47;6.90;;;22.30;32.70;;;;;;10445487;28;20320;-70
2023/05/21 07:45:18;;;;;;;8.10;7.40;;;22.40;32.90;;;;;;10439723;28;20224;-70
2023/05/21 07:50:21;;;;;;;8.10;7.40;;;22.50;32.70;;;;;;10439958;28;20241;-70
2023/05/21 07:55:24;;;;;;;7.87;7.17;;;22.60;32.50;;;;;;10440901;28;20714;-70
2023/05/21 08:00:29;;;;;;;8.20;7.60;;;22.70;32.30;;;;;;10443440;28;20235;-70
2023/05/21 08:05:32;;;;;;;8.13;7.27;;;22.80;32.00;;;;;;10435758;28;20236;-70
2023/05/21 08:10:36;;;;;;;8.20;7.50;;;22.90;31.90;;;;;;10431658;28;20232;-70
2023/05/21 08:15:41;;;;;;;7.23;6.63;;;23.00;32.20;;;;;;10428796;28;20251;-69
2023/05/21 08:20:45;;;;;;;7.80;7.10;;;23.20;31.60;;;;;;10439692;28;20228;-71
2023/05/21 08:25:48;;;;;;;7.20;6.67;;;23.30;31.50;;;;;;10434992;28;20308;-71
2023/05/21 08:30:53;;;;;;;6.77;6.27;;;23.50;31.50;;;;;;10434722;28;20319;-71
2023/05/21 08:35:56;;;;;;;7.50;6.80;;;23.60;31.10;;;;;;10445970;28;20226;-71
2023/05/21 08:41:00;;;;;;;7.73;7.03;;;23.80;31.10;;;;;;10441931;28;20224;-71
2023/05/21 08:46:08;;;;;;;7.30;6.70;;;24.00;31.10;;;;;;10445967;28;20242;-72
2023/05/21 08:51:12;;;;;;;7.63;6.90;;;24.10;30.20;;;;;;10447502;28;20225;-72
2023/05/21 08:56:16;;;;;;;7.13;6.53;;;24.30;30.40;;;;;;10451886;28;20244;-72
2023/05/21 09:01:22;;;;;;;7.13;6.43;;;24.50;30.10;;;;;;10451854;28;20370;-72
2023/05/21 09:06:32;;;;;;;7.07;6.57;;;24.70;30.20;;;;;;10443239;28;20244;-72
2023/05/21 09:11:35;;;;;;;7.87;7.17;;;24.90;30.30;;;;;;10447041;28;20229;-71
2023/05/21 09:16:40;;;;;;;7.23;6.73;;;25.10;29.60;;;;;;10442464;28;20252;-70
2023/05/21 09:21:44;;;;;;;7.87;7.17;;;25.20;28.80;;;;;;10441151;28;20217;-71
2023/05/21 09:26:47;;;;;;;7.93;7.23;;;25.30;29.00;;;;;;10441641;28;20685;-70
2023/05/21 09:31:53;;;;;;;10.93;7.10;;;25.40;29.30;;;;;;10434691;28;20231;-71
2023/05/21 09:36:57;;;;;;;7.27;6.67;;;25.40;28.90;;;;;;10438148;28;20284;-70
2023/05/21 09:42:01;;;;;;;7.40;6.80;;;25.60;29.00;;;;;;10436684;28;20320;-72
2023/05/21 09:47:06;;;;;;;7.60;7.00;;;25.70;29.00;;;;;;10437781;28;20265;-70
2023/05/21 09:52:09;;;;;;;7.90;7.30;;;25.90;28.30;;;;;;10440636;28;20428;-72
2023/05/21 09:57:14;;;;;;;7.43;6.83;;;26.10;28.50;;;;;;10436962;28;20239;-71
2023/05/21 10:02:21;;;;;;;7.33;6.73;;;26.20;27.50;;;;;;10434322;28;20214;-70
2023/05/21 10:07:26;;;;;;;7.30;6.80;;;26.30;27.60;;;;;;10434948;28;20306;-71
2023/05/21 10:12:31;;;;;;;6.47;5.97;;;26.50;27.90;;;;;;10443909;28;20295;-71
2023/05/21 10:17:37;;;;;;;7.13;6.53;;;26.60;27.70;;;;;;10434289;28;20270;-71
2023/05/21 10:22:41;;;;;;;6.43;5.93;;;26.70;27.50;;;;;;10439488;28;20275;-72
2023/05/21 10:27:44;;;;;;;6.53;6.03;;;26.80;27.50;;;;;;10438806;28;20935;-70
2023/05/21 10:32:50;;;;;;;6.53;6.03;;;27.00;27.50;;;;;;10444621;28;20232;-71
2023/05/21 10:37:55;;;;;;;7.03;6.53;;;27.10;26.90;;;;;;10429205;28;20221;-72
2023/05/21 10:43:25;;;;;;;7.47;6.77;;;27.10;27.10;;;;;;10436413;28;20220;-72
2023/05/21 10:48:47;;;;;;;6.80;6.30;;;27.20;26.50;;;;;;10437602;28;20578;-72
2023/05/21 10:54:15;;;;;;;7.20;6.60;;;27.30;26.40;;;;;;10438205;28;20216;-72
2023/05/21 10:59:30;;;;;;;6.83;6.33;;;27.40;26.30;;;;;;10446030;28;20329;-72
2023/05/21 11:04:38;;;;;;;6.57;6.07;;;27.50;26.30;;;;;;10452032;28;20285;-72
2023/05/21 11:09:42;;;;;;;6.63;6.13;;;27.50;26.20;;;;;;10445248;28;20314;-72
2023/05/21 11:14:57;;;;;;;6.37;5.77;;;27.50;26.00;;;;;;10441052;28;20243;-72
2023/05/21 11:20:06;;;;;;;6.50;5.90;;;27.60;25.70;;;;;;10446236;28;20247;-72
2023/05/21 11:25:11;;;;;;;6.37;5.90;;;27.60;25.40;;;;;;10443432;28;20239;-71
2023/05/21 11:30:17;;;;;;;6.07;5.53;;;27.70;25.80;;;;;;10445873;28;20255;-74
2023/05/21 11:35:22;;;;;;;6.43;5.93;;;27.80;25.10;;;;;;10449306;28;20242;-73
2023/05/21 11:40:28;;;;;;;5.83;5.33;;;27.80;24.80;;;;;;10448407;28;20232;-73
2023/05/21 11:45:33;;;;;;;5.73;5.23;;;27.80;24.80;;;;;;10439849;28;20228;-73
2023/05/21 11:50:38;;;;;;;6.30;5.80;;;27.80;24.60;;;;;;10450812;28;20243;-73
2023/05/21 11:55:46;;;;;;;6.33;5.73;;;27.90;24.40;;;;;;10448476;28;20676;-74
2023/05/21 12:00:51;;;;;;;7.13;5.97;;;27.90;24.50;;;;;;10449228;28;21017;-74
2023/05/21 12:06:04;;;;;;;6.67;6.17;;;28.00;24.00;;;;;;10449338;28;20224;-73
2023/05/21 12:11:07;;;;;;;6.20;5.70;;;28.10;24.30;;;;;;10442860;28;20234;-74
2023/05/21 12:16:11;;;;;;;6.07;5.57;;;28.10;24.30;;;;;;10451514;28;20224;-74
2023/05/21 12:21:17;;;;;;;6.57;5.97;;;28.20;24.40;;;;;;10443816;28;20580;-73
2023/05/21 12:26:20;;;;;;;6.40;5.80;;;28.30;23.70;;;;;;10448461;28;20247;-74
2023/05/21 12:31:26;;;;;;;5.53;5.13;;;28.30;23.80;;;;;;10453381;28;20320;-73
2023/05/21 12:36:32;;;;;;;6.33;5.83;;;28.40;23.50;;;;;;10454521;28;20379;-72
2023/05/21 12:41:36;;;;;;;6.10;5.70;;;28.40;22.90;;;;;;10454372;28;20374;-72
2023/05/21 12:46:39;;;;;;;5.83;5.33;;;28.50;23.40;;;;;;10454201;28;20233;-72
2023/05/21 12:51:45;;;;;;;5.93;5.53;;;28.50;22.80;;;;;;10487729;28;20258;-72
2023/05/21 12:56:48;;;;;;;5.30;4.90;;;28.50;21.30;;;;;;10495246;28;20229;-72
2023/05/21 13:01:53;;;;;;;5.50;5.00;;;28.60;22.90;;;;;;10448690;28;20218;-73
2023/05/21 13:06:57;;;;;;;6.30;5.80;;;28.60;22.50;;;;;;10446933;28;21177;-73
2023/05/21 13:12:01;;;;;;;6.00;5.40;;;28.70;22.70;;;;;;10451649;28;20225;-73
2023/05/21 13:17:04;;;;;;;7.70;6.03;;;28.80;22.60;;;;;;10447138;28;20224;-73
2023/05/21 13:22:09;;;;;;;5.97;5.50;;;28.90;22.40;;;;;;10454021;28;20248;-73
2023/05/21 13:27:12;;;;;;;5.67;5.27;;;28.90;22.10;;;;;;10449359;28;20411;-73
2023/05/21 13:32:15;;;;;;;5.83;5.40;;;29.00;22.40;;;;;;10452307;28;20233;-73
2023/05/21 13:37:20;;;;;;;6.30;5.70;;;29.10;22.00;;;;;;10453176;28;20227;-73
2023/05/21 13:42:23;;;;;;;5.50;5.10;;;29.10;20.60;;;;;;10454322;28;20228;-73
2023/05/21 13:47:28;;;;;;;5.67;5.27;;;29.10;21.40;;;;;;10450223;28;20229;-73
2023/05/21 13:52:32;;;;;;;5.57;5.17;;;29.20;21.10;;;;;;10455046;28;20229;-73
2023/05/21 13:57:36;;;;;;;6.00;5.50;;;29.20;20.70;;;;;;10444931;28;20260;-75
2023/05/21 14:02:40;;;;;;;6.30;5.80;;;29.20;21.60;;;;;;10448588;28;20312;-73
2023/05/21 14:07:47;;;;;;;5.70;5.30;;;29.30;21.70;;;;;;10446779;28;20764;-72
2023/05/21 14:12:50;;;;;;;5.77;5.27;;;29.40;20.80;;;;;;10445957;28;20728;-73
2023/05/21 14:17:53;;;;;;;5.53;5.13;;;29.50;20.90;;;;;;10442678;28;20280;-73
2023/05/21 14:22:58;;;;;;;6.20;5.70;;;29.60;20.60;;;;;;10444783;28;20213;-74
2023/05/21 14:28:01;;;;;;;5.70;5.20;;;29.70;20.10;;;;;;10437147;28;20713;-73
2023/05/21 14:33:05;;;;;;;6.10;5.70;;;29.70;20.90;;;;;;10448076;28;20228;-74
2023/05/21 14:38:09;;;;;;;6.50;5.97;;;29.70;20.90;;;;;;10443095;28;20221;-74
2023/05/21 14:43:13;;;;;;;6.30;5.80;;;29.60;20.90;;;;;;10445402;28;20412;-74
2023/05/21 14:48:21;;;;;;;5.93;5.43;;;29.60;20.90;;;;;;10442673;28;20221;-73
2023/05/21 14:53:26;;;;;;;6.40;5.90;;;29.50;20.90;;;;;;10444058;28;20229;-73
2023/05/21 14:58:30;;;;;;;6.07;5.43;;;29.40;20.70;;;;;;10447751;28;20295;-73
2023/05/21 15:03:33;;;;;;;5.83;5.33;;;29.40;20.80;;;;;;10444984;28;20236;-74
2023/05/21 15:08:37;;;;;;;6.27;5.70;;;29.40;20.80;;;;;;10451109;28;20263;-74
2023/05/21 15:13:41;;;;;;;6.30;5.67;;;29.40;20.80;;;;;;10449498;28;20239;-74
2023/05/21 15:18:44;;;;;;;6.50;6.00;;;29.50;20.90;;;;;;10448183;28;20236;-74
2023/05/21 15:23:49;;;;;;;6.97;6.27;;;29.60;20.90;;;;;;10445372;28;20232;-74
2023/05/21 15:28:52;;;;;;;5.90;5.40;;;29.50;20.90;;;;;;10456814;28;20239;-74
2023/05/21 15:33:55;;;;;;;5.80;5.40;;;29.50;20.90;;;;;;10453761;28;20909;-74
2023/05/21 15:39:04;;;;;;;6.33;5.83;;;29.50;20.90;;;;;;10458525;28;20274;-74
2023/05/21 15:44:08;;;;;;;6.03;5.63;;;29.50;20.90;;;;;;10451324;28;20221;-74
2023/05/21 15:49:11;;;;;;;6.00;5.60;;;29.50;20.90;;;;;;10457798;28;20251;-74
2023/05/21 15:54:16;;;;;;;5.97;5.47;;;29.60;20.90;;;;;;10461987;28;20609;-74
2023/05/21 15:59:19;;;;;;;6.43;5.93;;;29.60;20.90;;;;;;10463045;28;20678;-74
2023/05/21 16:04:22;;;;;;;6.40;5.90;;;29.60;20.90;;;;;;10451801;28;20263;-74
2023/05/21 16:09:27;;;;;;;5.90;5.50;;;29.60;20.90;;;;;;10451415;28;20252;-75
2023/05/21 16:14:30;;;;;;;6.03;5.53;;;29.60;20.90;;;;;;10448147;28;20228;-73
2023/05/21 16:19:33;;;;;;;6.53;6.03;;;29.60;20.90;;;;;;10449396;28;20238;-73
2023/05/21 16:24:38;;;;;;;6.30;5.70;;;29.60;20.90;;;;;;10447012;28;20296;-74
2023/05/21 16:29:42;;;;;;;6.03;5.53;;;29.60;20.90;;;;;;10451141;28;20221;-74
2023/05/21 16:34:45;;;;;;;6.30;5.70;;;29.70;20.90;;;;;;10454898;28;20608;-74
2023/05/21 16:39:49;;;;;;;5.83;5.37;;;29.70;20.90;;;;;;10444622;28;20228;-74
2023/05/21 16:44:53;;;;;;;6.33;5.80;;;29.60;20.80;;;;;;10445294;28;20286;-74
2023/05/21 16:49:57;;;;;;;5.87;5.47;;;29.60;20.90;;;;;;10446606;28;20668;-74
2023/05/21 16:55:02;;;;;;;5.87;5.37;;;29.60;20.90;;;;;;10457596;28;20411;-74
2023/05/21 17:00:06;;;;;;;6.27;5.77;;;29.50;20.60;;;;;;10451099;28;20641;-74
2023/05/21 17:05:10;;;;;;;6.20;5.70;;;29.40;20.80;;;;;;10458865;28;20349;-74
2023/05/21 17:10:15;;;;;;;6.30;5.80;;;29.40;20.80;;;;;;10452482;28;20315;-72
2023/05/21 17:15:18;;;;;;;6.60;6.00;;;29.30;20.70;;;;;;10452063;28;20238;-73
2023/05/21 17:20:21;;;;;;;6.23;5.63;;;29.20;20.70;;;;;;10450329;28;20225;-71
2023/05/21 17:25:26;;;;;;;5.90;5.40;;;29.10;20.60;;;;;;10453230;28;20723;-71
2023/05/21 17:30:29;;;;;;;6.47;5.87;;;29.10;20.60;;;;;;10452840;28;20233;-71
2023/05/21 17:35:32;;;;;;;5.80;5.40;;;29.10;20.60;;;;;;10452993;28;20228;-72
2023/05/21 17:40:37;;;;;;;6.17;5.67;;;29.00;20.60;;;;;;10452784;28;20304;-71
2023/05/21 17:45:40;;;;;;;5.90;5.50;;;29.00;20.60;;;;;;10451752;28;20248;-72
2023/05/21 17:50:45;;;;;;;5.90;5.50;;;28.90;20.50;;;;;;10452320;28;20581;-71
2023/05/21 17:55:50;;;;;;;5.80;5.40;;;28.90;20.80;;;;;;10452254;28;20287;-72
2023/05/21 18:00:53;;;;;;;6.47;5.97;;;28.80;20.90;;;;;;10451648;28;20976;-71
2023/05/21 18:05:56;;;;;;;5.97;5.47;;;28.70;21.00;;;;;;10451225;28;20811;-72
2023/05/21 18:11:01;;;;;;;5.83;5.33;;;28.70;21.10;;;;;;10451568;28;20324;-71
2023/05/21 18:16:05;;;;;;;7.33;5.50;;;28.70;21.10;;;;;;10451575;28;20249;-71
2023/05/21 18:21:08;;;;;;;6.27;5.77;;;28.50;21.10;;;;;;10451498;28;20235;-73
2023/05/21 18:26:13;;;;;;;6.33;5.57;;;28.50;21.30;;;;;;10451145;28;20229;-72
2023/05/21 18:31:17;;;;;;;5.77;5.33;;;28.40;21.30;;;;;;10450893;28;20234;-72
2023/05/21 18:36:20;;;;;;;6.50;6.00;;;28.30;21.30;;;;;;10449989;28;20251;-72
2023/05/21 18:41:25;;;;;;;6.53;5.93;;;28.20;21.40;;;;;;10443848;28;20253;-71
2023/05/21 18:46:28;;;;;;;5.87;5.43;;;28.20;21.50;;;;;;10438636;28;20229;-70
2023/05/21 18:51:32;;;;;;;6.13;5.63;;;28.10;21.60;;;;;;10445773;28;20709;-71
2023/05/21 18:56:37;;;;;;;6.10;5.50;;;28.00;21.60;;;;;;10477263;28;20285;-71
2023/05/21 19:01:41;;;;;;;6.90;6.37;;;27.90;21.70;;;;;;10487721;28;20786;-70
2023/05/21 19:06:44;;;;;;;6.97;6.27;;;27.70;21.80;;;;;;10486108;28;20343;-69
2023/05/21 19:11:49;;;;;;;6.57;6.00;;;27.60;21.70;;;;;;10479510;28;20790;-70
2023/05/21 19:16:52;;;;;;;9.73;6.53;;;27.40;21.80;;;;;;10479109;28;20238;-70
2023/05/21 19:21:56;;;;;;;7.27;6.67;;;27.30;21.90;;;;;;10480946;28;20246;-69
2023/05/21 19:27:01;;;;;;;6.37;5.80;;;27.20;22.00;;;;;;10485530;28;20243;-69
2023/05/21 19:32:04;;;;;;;6.47;5.90;;;27.10;22.20;;;;;;10487207;28;20234;-69
2023/05/21 19:37:07;;;;;;;6.20;5.60;;;26.90;22.10;;;;;;10487451;28;20238;-69
2023/05/21 19:42:12;;;;;;;6.47;5.97;;;26.80;22.20;;;;;;10486563;28;20236;-69
2023/05/21 19:47:15;;;;;;;6.23;5.80;;;26.70;22.50;;;;;;10485699;28;20240;-68
2023/05/21 19:52:19;;;;;;;6.03;5.53;;;26.60;22.50;;;;;;10486777;28;20330;-70
2023/05/21 19:57:23;;;;;;;6.30;5.80;;;26.50;22.50;;;;;;10486266;28;20252;-70
2023/05/21 20:02:27;;;;;;;6.63;6.03;;;26.40;22.60;;;;;;10486481;28;20307;-69
2023/05/21 20:07:30;;;;;;;6.33;5.83;;;26.30;22.60;;;;;;10487305;28;20232;-69
2023/05/21 20:12:35;;;;;;;6.27;5.70;;;26.20;22.70;;;;;;10470780;28;20343;-69
2023/05/21 20:17:38;;;;;;;6.20;5.70;;;26.10;22.70;;;;;;10451752;28;20255;-69
2023/05/21 20:22:45;;;;;;;6.27;5.67;;;26.00;22.70;;;;;;10452498;28;20232;-70
2023/05/21 20:27:50;;;;;;;6.13;5.63;;;25.90;22.80;;;;;;10452081;28;20244;-69
2023/05/21 20:32:53;;;;;;;5.93;5.43;;;25.80;22.90;;;;;;10451728;28;20272;-70
2023/05/21 20:37:57;;;;;;;6.43;5.83;;;25.70;22.90;;;;;;10451336;28;20245;-69
2023/05/21 20:43:01;;;;;;;6.03;5.43;;;25.60;23.00;;;;;;10451110;28;20237;-70
2023/05/21 20:48:05;;;;;;;6.43;5.77;;;25.50;23.20;;;;;;10449212;28;20239;-70
2023/05/21 20:53:09;;;;;;;6.50;6.00;;;25.40;23.20;;;;;;10451396;28;20597;-69
2023/05/21 20:58:13;;;;;;;6.97;6.27;;;25.40;23.40;;;;;;10453218;28;20729;-69
2023/05/21 21:03:17;;;;;;;7.03;6.53;;;25.30;23.50;;;;;;10454001;28;20699;-69
2023/05/21 21:08:20;;;;;;;6.43;5.93;;;25.20;23.50;;;;;;10454021;28;20229;-69
2023/05/21 21:13:26;;;;;;;6.47;5.87;;;25.10;23.60;;;;;;10453057;28;20224;-70
2023/05/21 21:18:29;;;;;;;6.63;6.13;;;25.00;23.80;;;;;;10452778;28;21023;-69
2023/05/21 21:23:32;;;;;;;6.17;5.67;;;25.00;23.90;;;;;;10452543;28;20706;-69
2023/05/21 21:28:37;;;;;;;5.90;5.50;;;24.90;23.90;;;;;;10452785;28;20308;-69
2023/05/21 21:33:40;;;;;;;6.37;5.67;;;24.90;24.10;;;;;;10452179;28;20374;-69
2023/05/21 21:38:44;;;;;;;6.70;5.97;;;24.80;24.10;;;;;;10452381;28;20720;-69
2023/05/21 21:43:48;;;;;;;6.47;5.93;;;24.80;24.20;;;;;;10451878;28;20253;-69
2023/05/21 21:48:52;;;;;;;6.33;5.73;;;24.70;24.40;;;;;;10451539;28;20245;-69
2023/05/21 21:53:55;;;;;;;7.10;6.50;;;24.70;24.40;;;;;;10451632;28;20259;-69
2023/05/21 21:58:59;;;;;;;6.20;5.77;;;24.60;24.40;;;;;;10451034;28;20323;-69
2023/05/21 22:04:03;;;;;;;6.87;6.20;;;24.60;24.70;;;;;;10450794;28;20260;-70
2023/05/21 22:09:06;;;;;;;6.50;6.00;;;24.50;24.50;;;;;;10450245;28;20776;-69
2023/05/21 22:14:11;;;;;;;7.20;6.60;;;24.50;24.70;;;;;;10450412;28;20229;-70
2023/05/21 22:19:16;;;;;;;6.67;6.17;;;24.50;24.90;;;;;;10449898;28;20311;-69
2023/05/21 22:24:20;;;;;;;6.57;6.07;;;24.40;25.00;;;;;;10448404;28;20233;-69
2023/05/21 22:29:36;;;;;;;7.27;6.67;;;24.40;25.00;;;;;;10449428;28;20324;-69
2023/05/21 22:34:40;;;;;;;6.47;5.90;;;24.30;25.20;;;;;;10449484;28;20332;-68
2023/05/21 22:39:43;;;;;;;7.00;6.40;;;24.10;24.90;;;;;;10450316;28;20282;-69
2023/05/21 22:44:48;;;;;;;6.97;6.37;;;24.00;25.10;;;;;;10449841;28;20225;-69
2023/05/21 22:49:52;;;;;;;7.00;6.40;;;23.90;25.60;;;;;;10449675;28;20237;-69
2023/05/21 22:54:56;;;;;;;7.40;6.70;;;23.80;25.40;;;;;;10449938;28;20474;-69
2023/05/21 23:00:01;;;;;;;5.93;5.43;;;23.70;25.50;;;;;;10449460;28;20263;-69
2023/05/21 23:05:05;;;;;;;6.60;6.00;;;23.70;25.80;;;;;;10448868;28;20282;-69
2023/05/21 23:10:09;;;;;;;6.83;6.23;;;23.60;25.70;;;;;;10449103;28;20233;-69
2023/05/21 23:15:13;;;;;;;7.17;6.57;;;23.50;25.70;;;;;;10448748;28;20233;-69
2023/05/21 23:20:17;;;;;;;8.03;6.50;;;23.40;26.10;;;;;;10448967;28;20716;-69
2023/05/21 23:25:20;;;;;;;6.87;6.37;;;23.30;25.90;;;;;;10449235;28;20225;-69
2023/05/21 23:30:25;;;;;;;7.17;6.57;;;23.20;26.00;;;;;;10448975;28;20228;-69
2023/05/21 23:35:28;;;;;;;7.03;6.43;;;23.10;26.40;;;;;;10449014;28;20748;-69
2023/05/21 23:40:31;;;;;;;6.30;5.77;;;23.00;26.10;;;;;;10448670;28;20324;-69
2023/05/21 23:45:36;;;;;;;7.10;6.50;;;23.00;26.20;;;;;;10453813;28;20235;-70
2023/05/21 23:50:39;;;;;;;7.13;6.43;;;22.90;26.50;;;;;;10456733;28;20274;-69
2023/05/21 23:55:44;;;;;;;6.67;6.13;;;22.90;26.30;;;;;;10456279;28;20266;-69
